Time;durP1;ratioP1;P1;durP2;ratioP2;P2;SDS_P1;SDS_P2;PMS_P1;PMS_P2;Temp;Humidity;BMP_temperature;BMP_pressure;BME280_temperature;BME280_humidity;BME280_pressure;Samples;Min_cycle;Max_cycle;Signal;HPM_P1;HPM_P2
2023/07/14 00:00:50;;;;;;;5.07;2.75;;;;;;;16.84;100.00;101678.44;10406801;28;20129;-74
2023/07/14 00:05:51;;;;;;;4.75;2.58;;;;;;;16.86;100.00;101665.41;10407134;28;20107;-72
2023/07/14 00:10:51;;;;;;;2.58;2.40;;;;;;;16.80;100.00;101670.91;10410305;28;20600;-73
2023/07/14 00:15:52;;;;;;;5.65;3.35;;;;;;;16.78;100.00;101667.53;10413921;28;20117;-75
2023/07/14 00:20:53;;;;;;;4.43;2.70;;;;;;;16.78;100.00;101660.19;10415279;28;20175;-73
2023/07/14 00:25:53;;;;;;;7.13;2.67;;;;;;;16.74;100.00;101651.53;10415319;28;20555;-73
2023/07/14 00:30:54;;;;;;;6.38;2.55;;;;;;;16.70;100.00;101655.78;10414029;28;20114;-72
2023/07/14 00:35:54;;;;;;;13.70;3.00;;;;;;;16.66;100.00;101654.56;10415269;28;20535;-71
2023/07/14 00:40:54;;;;;;;3.28;2.95;;;;;;;16.58;100.00;101653.97;10414489;28;20060;-72
2023/07/14 00:45:55;;;;;;;4.68;2.35;;;;;;;16.52;100.00;101645.56;10396291;28;20113;-74
2023/07/14 00:51:12;;;;;;;7.63;2.58;;;;;;;16.37;100.00;101634.09;10412804;28;20037;-74
2023/07/14 00:56:13;;;;;;;4.13;2.83;;;;;;;16.40;100.00;101641.88;10412698;28;20029;-74
2023/07/14 01:01:21;;;;;;;7.30;3.35;;;;;;;16.35;100.00;101629.91;10413363;28;20029;-74
2023/07/14 01:06:25;;;;;;;9.23;3.45;;;;;;;16.31;99.95;101629.50;10411707;28;20072;-72
2023/07/14 01:11:39;;;;;;;7.90;3.05;;;;;;;16.24;98.29;101629.53;10412073;28;20487;-73
2023/07/14 01:16:39;;;;;;;4.30;3.45;;;;;;;16.11;100.00;101628.75;10396259;28;20029;-74
2023/07/14 01:21:39;;;;;;;4.85;2.00;;;;;;;16.03;100.00;101625.19;10411168;28;20033;-75
2023/07/14 01:27:07;;;;;;;4.45;2.60;;;;;;;16.03;100.00;101627.94;10395685;28;20033;-74
2023/07/14 01:32:15;;;;;;;9.57;3.33;;;;;;;15.91;100.00;101618.72;10411580;28;20091;-70
2023/07/14 01:37:19;;;;;;;5.75;3.15;;;;;;;15.88;99.73;101615.59;10394159;28;20167;-73
2023/07/14 01:42:20;;;;;;;6.80;2.95;;;;;;;15.80;100.00;101609.31;10411570;28;20058;-73
2023/07/14 01:47:20;;;;;;;7.32;4.05;;;;;;;15.75;100.00;101614.56;10393936;28;20053;-73
2023/07/14 01:52:24;;;;;;;6.57;3.63;;;;;;;15.77;100.00;101619.84;10412976;28;20134;-71
2023/07/14 01:57:27;;;;;;;8.77;2.97;;;;;;;15.74;100.00;101617.53;10399606;28;20088;-72
2023/07/14 02:02:34;;;;;;;7.05;3.20;;;;;;;15.66;100.00;101615.81;10415525;28;20124;-71
2023/07/14 02:07:36;;;;;;;10.45;2.92;;;;;;;15.66;100.00;101615.81;10417790;28;20484;-71
2023/07/14 02:12:36;;;;;;;4.70;3.13;;;;;;;15.59;100.00;101610.38;10433427;28;20037;-71
2023/07/14 02:17:37;;;;;;;6.35;3.25;;;;;;;15.50;100.00;101606.19;10415246;28;20040;-71
2023/07/14 02:22:38;;;;;;;4.85;3.13;;;;;;;15.44;100.00;101598.84;10431314;28;20029;-71
2023/07/14 02:27:38;;;;;;;6.10;3.80;;;;;;;15.34;100.00;101587.53;10413006;28;20118;-71
2023/07/14 02:32:41;;;;;;;6.43;3.50;;;;;;;15.28;100.00;101591.13;10413965;28;20415;-71
2023/07/14 02:38:00;;;;;;;9.65;4.35;;;;;;;15.21;100.00;101593.03;10397982;28;20021;-71
2023/07/14 02:43:08;;;;;;;4.22;3.15;;;;;;;15.11;100.00;101579.81;10413634;28;20088;-71
2023/07/14 02:48:09;;;;;;;22.10;3.85;;;;;;;15.03;100.00;101590.94;10398081;28;20463;-71
2023/07/14 02:53:10;;;;;;;7.18;3.67;;;;;;;14.96;100.00;101599.09;10397222;28;20145;-71
2023/07/14 02:58:11;;;;;;;7.95;3.22;;;;;;;14.93;100.00;101609.59;10413901;28;20410;-71
2023/07/14 03:03:11;;;;;;;4.70;3.22;;;;;;;14.92;100.00;101600.59;10414519;28;20128;-71
2023/07/14 03:08:14;;;;;;;6.63;3.22;;;;;;;14.94;100.00;101600.38;10397074;28;20140;-71
2023/07/14 03:13:15;;;;;;;11.68;3.88;;;;;;;14.86;100.00;101588.63;10412509;28;20030;-71
2023/07/14 03:18:16;;;;;;;6.22;3.00;;;;;;;14.87;100.00;101578.56;10411581;28;20388;-71
2023/07/14 03:23:16;;;;;;;12.85;5.32;;;;;;;14.81;100.00;101585.69;10413624;28;20033;-71
2023/07/14 03:28:17;;;;;;;12.55;6.00;;;;;;;14.76;100.00;101573.72;10396309;28;20087;-71
2023/07/14 03:33:17;;;;;;;4.78;3.58;;;;;;;14.75;100.00;101578.34;10429184;28;20032;-71
2023/07/14 03:38:18;;;;;;;12.82;4.47;;;;;;;14.74;100.00;101573.94;10395491;28;20412;-71
2023/07/14 03:43:18;;;;;;;6.03;4.40;;;;;;;14.85;100.00;101567.84;10412158;28;20403;-71
2023/07/14 03:48:19;;;;;;;9.02;5.32;;;;;;;15.08;100.00;101572.03;10419806;28;20049;-71
2023/07/14 03:53:20;;;;;;;8.65;5.43;;;;;;;15.29;100.00;101562.81;10436060;28;20034;-71
2023/07/14 03:58:21;;;;;;;11.70;4.15;;;;;;;15.47;100.00;101564.84;10422639;28;20028;-72
2023/07/14 04:03:21;;;;;;;8.45;4.30;;;;;;;15.49;100.00;101563.59;10436390;28;20072;-71
2023/07/14 04:08:22;;;;;;;6.07;4.28;;;;;;;15.47;100.00;101556.66;10421605;28;20029;-71
2023/07/14 04:13:23;;;;;;;10.50;4.70;;;;;;;15.42;100.00;101548.28;10420663;28;20025;-71
2023/07/14 04:18:23;;;;;;;9.13;5.05;;;;;;;15.40;100.00;101553.94;10435265;28;20087;-71
2023/07/14 04:23:24;;;;;;;6.90;3.83;;;;;;;15.41;100.00;101558.38;10418975;28;20030;-71
2023/07/14 04:28:24;;;;;;;12.55;5.68;;;;;;;15.48;100.00;101561.91;10420156;28;20361;-71
2023/07/14 04:33:25;;;;;;;8.95;4.55;;;;;;;15.62;100.00;101554.53;10419185;28;20057;-71
2023/07/14 04:38:25;;;;;;;15.02;5.32;;;;;;;15.68;100.00;101558.31;10420360;28;20113;-71
2023/07/14 04:43:26;;;;;;;14.25;5.20;;;;;;;15.89;100.00;101552.56;10419575;28;20099;-71
2023/07/14 04:48:26;;;;;;;10.98;5.55;;;;;;;16.03;100.00;101548.72;10419252;28;20110;-71
2023/07/14 04:53:26;;;;;;;8.10;5.10;;;;;;;16.22;100.00;101543.34;10419737;28;20158;-71
2023/07/14 04:58:27;;;;;;;8.15;5.43;;;;;;;16.39;100.00;101540.94;10417764;28;20097;-72
2023/07/14 05:03:28;;;;;;;10.38;5.57;;;;;;;16.68;100.00;101539.47;10403826;28;20536;-71
2023/07/14 05:08:29;;;;;;;11.82;4.93;;;;;;;17.09;100.00;101538.91;10417558;28;20021;-71
2023/07/14 05:13:29;;;;;;;9.60;5.00;;;;;;;17.08;100.00;101542.72;10417881;28;20030;-71
2023/07/14 05:18:30;;;;;;;15.43;6.15;;;;;;;17.16;100.00;101536.13;10418246;28;20072;-71
2023/07/14 05:23:30;;;;;;;11.32;6.60;;;;;;;17.15;100.00;101521.59;10415708;28;20025;-72
2023/07/14 05:28:31;;;;;;;11.10;6.32;;;;;;;17.80;100.00;101521.09;10399836;28;20033;-71
2023/07/14 05:33:31;;;;;;;11.77;6.00;;;;;;;18.47;100.00;101528.38;10416505;28;20058;-71
2023/07/14 05:38:31;;;;;;;9.43;5.18;;;;;;;18.38;100.00;101529.78;10398539;28;20075;-71
2023/07/14 05:43:32;;;;;;;9.38;6.15;;;;;;;19.61;100.00;101536.31;10415704;28;20136;-71
2023/07/14 05:48:32;;;;;;;14.80;7.10;;;;;;;20.11;100.00;101532.97;10415332;28;20104;-71
2023/07/14 05:53:33;;;;;;;11.38;7.22;;;;;;;20.01;100.00;101522.59;10415288;28;20053;-72
2023/07/14 05:58:33;;;;;;;6.95;5.05;;;;;;;20.27;99.30;101531.34;10415088;28;20025;-71
2023/07/14 06:03:34;;;;;;;6.65;5.13;;;;;;;20.38;99.12;101530.44;10414262;28;20113;-71
2023/07/14 06:08:34;;;;;;;14.38;7.10;;;;;;;20.53;97.52;101528.00;10414495;28;20417;-73
2023/07/14 06:13:35;;;;;;;17.20;7.30;;;;;;;20.87;96.17;101519.75;10414870;28;20365;-72
2023/07/14 06:18:35;;;;;;;9.10;6.78;;;;;;;20.47;96.16;101520.69;10415114;28;20025;-71
2023/07/14 06:23:35;;;;;;;19.52;7.57;;;;;;;19.95;97.85;101502.44;10413392;28;20166;-71
2023/07/14 06:28:36;;;;;;;8.82;6.88;;;;;;;19.78;99.12;101519.94;10430590;28;20130;-71
2023/07/14 06:33:36;;;;;;;18.02;7.20;;;;;;;19.65;100.00;101519.13;10412412;28;20112;-72
2023/07/14 06:38:37;;;;;;;11.45;7.35;;;;;;;19.44;100.00;101517.00;10428605;28;20401;-71
2023/07/14 06:43:37;;;;;;;12.77;8.23;;;;;;;19.20;100.00;101511.53;10413215;28;20060;-72
2023/07/14 06:48:37;;;;;;;13.20;6.53;;;;;;;19.08;100.00;101523.59;10412010;28;20112;-74
2023/07/14 06:53:38;;;;;;;19.67;9.85;;;;;;;19.28;100.00;101505.69;10411994;28;20025;-73
2023/07/14 06:58:38;;;;;;;12.77;8.02;;;;;;;19.25;100.00;101505.34;10395729;28;20076;-74
2023/07/14 07:03:39;;;;;;;10.52;8.50;;;;;;;19.44;100.00;101511.50;10428723;28;20037;-73
2023/07/14 07:08:39;;;;;;;23.73;9.75;;;;;;;19.46;100.00;101498.34;10413336;28;20148;-72
2023/07/14 07:13:40;;;;;;;15.65;8.13;;;;;;;20.12;100.00;101488.72;10412053;28;20115;-74
2023/07/14 07:18:40;;;;;;;10.23;5.38;;;;;;;19.89;97.63;101489.66;10411639;28;20071;-74
2023/07/14 07:23:40;;;;;;;7.50;6.43;;;;;;;20.07;97.24;101490.53;10412366;28;20500;-75
2023/07/14 07:28:41;;;;;;;15.60;7.78;;;;;;;21.06;95.95;101479.00;10429525;28;20199;-74
2023/07/14 07:33:42;;;;;;;18.52;9.38;;;;;;;22.50;88.37;101479.59;10412427;28;20338;-74
2023/07/14 07:38:47;;;;;;;7.85;6.85;;;;;;;22.13;84.00;101485.00;10413481;28;20088;-73
2023/07/14 07:43:48;;;;;;;13.07;7.10;;;;;;;21.88;86.37;101478.13;10428486;28;20061;-72
2023/07/14 07:48:49;;;;;;;11.10;5.82;;;;;;;22.51;83.50;101476.56;10378224;28;20096;-72
2023/07/14 07:53:49;;;;;;;11.93;5.95;;;;;;;23.84;79.57;101469.06;10427342;28;20449;-73
2023/07/14 07:58:50;;;;;;;11.05;6.10;;;;;;;23.33;80.64;101470.78;10427177;28;20105;-75
2023/07/14 08:03:51;;;;;;;8.55;5.55;;;;;;;22.76;82.63;101475.09;10426583;28;20484;-73
2023/07/14 08:08:51;;;;;;;12.38;7.13;;;;;;;23.42;80.06;101472.75;10378733;28;20033;-73
2023/07/14 08:13:52;;;;;;;7.90;6.03;;;;;;;23.39;70.69;101455.88;10394774;28;20057;-72
2023/07/14 08:18:52;;;;;;;14.15;5.43;;;;;;;23.19;76.14;101464.88;10409013;28;20398;-72
2023/07/14 08:23:53;;;;;;;9.27;5.55;;;;;;;22.90;70.07;101456.97;10411025;28;20065;-73
2023/07/14 08:28:53;;;;;;;10.48;5.45;;;;;;;22.53;75.48;101465.28;10411069;28;20033;-72
2023/07/14 08:33:54;;;;;;;5.57;4.60;;;;;;;22.97;75.37;101457.59;10417839;28;20183;-70
2023/07/14 08:38:54;;;;;;;15.27;5.20;;;;;;;23.28;70.63;101446.69;10416211;28;20112;-72
2023/07/14 08:44:40;;;;;;;6.50;5.32;;;;;;;25.01;63.29;101437.78;10401233;28;20144;-71
2023/07/14 08:49:50;;;;;;;6.05;3.90;;;;;;;26.92;58.91;101441.84;10355668;28;20139;-71
2023/07/14 08:55:17;;;;;;;4.07;3.78;;;;;;;25.91;55.56;101436.03;10416462;28;20056;-72
2023/07/14 09:00:28;;;;;;;5.32;4.13;;;;;;;26.26;55.88;101432.19;10401032;28;20475;-71
2023/07/14 09:05:28;;;;;;;8.32;3.88;;;;;;;26.41;58.19;101433.97;10383517;28;20029;-72
2023/07/14 09:10:36;;;;;;;5.85;4.00;;;;;;;24.85;56.47;101430.63;10417007;28;20393;-72
2023/07/14 09:15:36;;;;;;;3.60;3.30;;;;;;;24.28;57.97;101427.06;10417220;28;20330;-72
2023/07/14 09:21:14;;;;;;;3.72;3.15;;;;;;;24.49;58.91;101427.09;10416522;28;20029;-71
2023/07/14 09:26:24;;;;;;;5.95;4.07;;;;;;;25.00;57.61;101426.97;10416326;28;20522;-72
2023/07/14 09:31:37;;;;;;;5.70;4.10;;;;;;;25.22;59.00;101421.13;10415640;28;20156;-72
2023/07/14 09:36:38;;;;;;;5.47;4.18;;;;;;;25.56;55.94;101426.78;10414540;28;20029;-72
2023/07/14 09:41:38;;;;;;;3.28;2.85;;;;;;;25.41;50.84;101418.56;10414791;28;20073;-72
2023/07/14 09:46:45;;;;;;;6.50;3.88;;;;;;;24.74;53.85;101412.38;10415537;28;20450;-71
2023/07/14 09:52:10;;;;;;;4.60;3.00;;;;;;;24.14;53.62;101412.09;10398999;28;20091;-71
2023/07/14 09:57:11;;;;;;;6.72;3.28;;;;;;;24.15;53.70;101399.91;10413687;28;20449;-71
2023/07/14 10:02:11;;;;;;;5.82;3.38;;;;;;;23.65;53.45;101407.88;10414041;28;20033;-71
2023/07/14 10:07:24;;;;;;;4.93;2.80;;;;;;;23.61;54.75;101405.91;10397448;28;20098;-71
2023/07/14 10:12:25;;;;;;;2.97;2.75;;;;;;;23.42;55.93;101392.59;10413689;28;20079;-71
2023/07/14 10:17:27;;;;;;;4.20;2.85;;;;;;;23.16;54.65;101390.81;10414184;28;20032;-73
2023/07/14 10:22:29;;;;;;;6.60;2.92;;;;;;;23.13;54.95;101388.59;10413138;28;20041;-74
2023/07/14 10:27:30;;;;;;;3.15;2.85;;;;;;;23.21;55.44;101380.63;10412239;28;20041;-74
2023/07/14 10:32:50;;;;;;;11.32;3.38;;;;;;;23.41;55.66;101371.56;10414543;28;20029;-73
2023/07/14 10:37:57;;;;;;;3.22;2.17;;;;;;;23.35;56.99;101339.50;10416059;28;20061;-74
2023/07/14 10:42:58;;;;;;;5.63;3.58;;;;;;;23.45;57.59;101349.75;10411734;28;20369;-72
2023/07/14 10:48:03;;;;;;;6.45;2.38;;;;;;;23.61;56.90;101325.72;10413315;28;20144;-72
2023/07/14 10:53:15;;;;;;;6.57;2.80;;;;;;;23.67;54.50;101330.16;10412669;28;20032;-73
2023/07/14 10:58:19;;;;;;;4.65;2.88;;;;;;;23.76;52.75;101333.25;10410500;28;20100;-71
2023/07/14 11:03:28;;;;;;;3.35;2.67;;;;;;;23.52;52.57;101327.41;10412501;28;20101;-71
2023/07/14 11:08:29;;;;;;;2.78;2.58;;;;;;;23.67;52.77;101316.34;10394684;28;20029;-71
2023/07/14 11:13:54;;;;;;;5.30;2.63;;;;;;;24.46;50.41;101314.13;10394314;28;20030;-71
2023/07/14 11:19:02;;;;;;;3.47;2.65;;;;;;;24.90;46.55;101313.44;10411068;28;20052;-71
2023/07/14 11:24:17;;;;;;;2.20;2.03;;;;;;;24.70;46.61;101306.03;10411126;28;20458;-71
2023/07/14 11:29:19;;;;;;;1.85;1.75;;;;;;;25.73;47.67;101296.03;10396080;28;20034;-71
2023/07/14 11:34:35;;;;;;;2.05;1.67;;;;;;;26.93;45.29;101296.22;10411446;28;20479;-72
2023/07/14 11:39:40;;;;;;;3.23;2.40;;;;;;;27.63;45.71;101289.09;10410683;28;20144;-71
2023/07/14 11:44:40;;;;;;;3.92;3.13;;;;;;;28.00;41.24;101291.00;10394847;28;20294;-71
2023/07/14 11:49:42;;;;;;;5.55;2.35;;;;;;;27.19;40.09;101279.22;10426561;28;20378;-71
2023/07/14 11:54:55;;;;;;;2.90;2.60;;;;;;;26.67;43.41;101279.88;10394370;28;20056;-71
2023/07/14 12:00:13;;;;;;;3.53;3.33;;;;;;;27.91;42.96;101276.97;10411425;28;20064;-72
2023/07/14 12:05:14;;;;;;;3.15;2.95;;;;;;;27.18;40.71;101272.00;10397164;28;20048;-72
2023/07/14 12:10:15;;;;;;;5.45;3.08;;;;;;;27.12;41.09;101271.19;10417932;28;20033;-71
2023/07/14 12:15:44;;;;;;;2.83;2.60;;;;;;;26.85;41.73;101256.00;10401201;28;20461;-71
2023/07/14 12:20:45;;;;;;;3.70;3.40;;;;;;;26.28;41.77;101237.53;10418434;28;20103;-71
2023/07/14 12:25:50;;;;;;;4.15;2.20;;;;;;;25.68;42.67;101227.53;10418381;28;20038;-72
2023/07/14 12:30:51;;;;;;;3.33;3.03;;;;;;;25.70;42.75;101217.00;10417374;28;20453;-71
2023/07/14 12:35:51;;;;;;;5.13;3.45;;;;;;;27.09;41.77;101205.94;10417594;28;20138;-72
2023/07/14 12:40:54;;;;;;;4.55;3.63;;;;;;;27.97;39.62;101195.00;10433386;28;20084;-71
2023/07/14 12:45:55;;;;;;;7.07;4.55;;;;;;;27.92;40.76;101185.91;10400510;28;20161;-71
2023/07/14 12:50:56;;;;;;;5.82;3.45;;;;;;;26.88;41.68;101185.13;10402332;28;20030;-78
2023/07/14 12:56:03;;;;;;;3.15;2.90;;;;;;;25.90;42.85;101179.09;10402392;28;20025;-81
2023/07/14 13:01:03;;;;;;;6.25;2.92;;;;;;;25.80;43.59;101165.31;10419602;28;20088;-79
2023/07/14 13:06:04;;;;;;;3.17;1.98;;;;;;;25.79;42.45;101172.81;10416525;28;20029;-81
2023/07/14 13:11:05;;;;;;;2.33;2.22;;;;;;;25.80;42.42;101148.66;10399404;28;20033;-78
2023/07/14 13:16:06;;;;;;;4.10;2.50;;;;;;;25.81;42.06;101137.28;10431950;28;20041;-78
2023/07/14 13:21:28;;;;;;;2.90;2.60;;;;;;;26.11;41.76;101152.78;10416802;28;20036;-78
2023/07/14 13:26:28;;;;;;;2.83;2.63;;;;;;;25.86;42.75;101123.38;10416297;28;20333;-79
2023/07/14 13:31:37;;;;;;;4.28;3.45;;;;;;;25.90;43.45;101118.06;10415591;28;20042;-78
2023/07/14 13:36:38;;;;;;;2.92;2.58;;;;;;;26.33;43.57;101110.59;10400406;28;20041;-77
2023/07/14 13:41:44;;;;;;;4.18;2.95;;;;;;;25.73;43.99;101096.31;10398128;28;20053;-77
2023/07/14 13:46:44;;;;;;;4.38;2.97;;;;;;;25.44;45.51;101096.34;10415358;28;20060;-77
2023/07/14 13:51:46;;;;;;;3.40;3.10;;;;;;;25.20;46.41;101088.78;10398369;28;20377;-77
2023/07/14 13:56:47;;;;;;;2.17;2.05;;;;;;;25.38;46.91;101081.69;10413893;28;20504;-78
2023/07/14 14:01:49;;;;;;;3.47;3.13;;;;;;;25.57;46.85;101058.78;10416064;28;20163;-77
2023/07/14 14:06:49;;;;;;;4.68;3.00;;;;;;;25.91;47.06;101051.19;10397642;28;20183;-76
2023/07/14 14:11:51;;;;;;;2.90;2.47;;;;;;;26.07;46.70;101046.28;10430181;28;20110;-77
2023/07/14 14:16:51;;;;;;;4.10;3.80;;;;;;;25.93;46.94;101026.72;10412779;28;20121;-77
2023/07/14 14:21:52;;;;;;;5.82;3.50;;;;;;;25.65;47.23;101014.56;10397441;28;20084;-77
2023/07/14 14:26:52;;;;;;;4.15;3.38;;;;;;;25.47;47.97;100995.94;10413879;28;20030;-76
2023/07/14 14:31:53;;;;;;;7.32;4.55;;;;;;;25.56;47.77;101001.66;10412772;28;20040;-76
2023/07/14 14:36:53;;;;;;;5.78;3.15;;;;;;;25.46;47.53;100994.28;10412661;28;20033;-81
2023/07/14 14:41:54;;;;;;;3.05;2.78;;;;;;;25.39;48.10;100985.50;10395910;28;20140;-73
2023/07/14 14:46:55;;;;;;;4.38;3.38;;;;;;;25.09;49.33;100970.00;10411977;28;20029;-70
2023/07/14 14:51:55;;;;;;;4.10;2.65;;;;;;;25.72;48.72;100959.56;10413667;28;20476;-71
2023/07/14 14:56:56;;;;;;;2.88;2.67;;;;;;;25.66;48.50;100944.13;10411966;28;20030;-70
2023/07/14 15:01:56;;;;;;;8.05;3.05;;;;;;;25.39;49.17;100941.13;10412763;28;20026;-74
2023/07/14 15:06:57;;;;;;;5.03;2.70;;;;;;;25.03;49.95;100935.97;10413535;28;20435;-71
2023/07/14 15:11:57;;;;;;;4.82;2.80;;;;;;;24.54;51.72;100926.78;10411702;28;20116;-71
2023/07/14 15:16:58;;;;;;;4.50;2.90;;;;;;;24.20;52.67;100921.22;10413267;28;20045;-71
2023/07/14 15:22:00;;;;;;;5.65;2.83;;;;;;;23.91;53.53;100904.53;10412231;28;20037;-71
2023/07/14 15:27:01;;;;;;;3.13;2.65;;;;;;;23.41;55.70;100895.38;10410766;28;20116;-71
2023/07/14 15:32:01;;;;;;;4.43;3.03;;;;;;;23.29;57.52;100884.66;10394511;28;20037;-71
2023/07/14 15:37:02;;;;;;;2.67;2.45;;;;;;;23.15;60.36;100881.69;10411247;28;20048;-70
2023/07/14 15:42:08;;;;;;;5.53;3.80;;;;;;;23.25;60.83;100875.28;10421320;28;20143;-71
2023/07/14 15:47:12;;;;;;;;;;;;;;;23.24;59.16;100859.81;10424344;28;20392;-70
2023/07/14 15:52:16;;;;;;;4.90;3.35;;;;;;;23.43;60.16;100852.53;10425913;28;19921;-70
2023/07/14 15:57:17;;;;;;;4.10;2.85;;;;;;;23.58;59.10;100839.72;10423989;28;20025;-71
2023/07/14 16:02:18;;;;;;;4.43;3.20;;;;;;;23.66;57.44;100823.38;10425894;28;20041;-70
2023/07/14 16:07:18;;;;;;;4.68;3.50;;;;;;;23.77;56.09;100799.28;10407991;28;20380;-70
2023/07/14 16:12:18;;;;;;;3.67;3.38;;;;;;;23.44;55.95;100817.44;10406719;28;20104;-70
2023/07/14 16:17:19;;;;;;;6.78;2.97;;;;;;;23.06;59.73;100794.97;10424359;28;20081;-70
2023/07/14 16:22:20;;;;;;;3.97;2.53;;;;;;;23.04;60.50;100790.84;10423618;28;20539;-71
2023/07/14 16:27:23;;;;;;;4.22;3.17;;;;;;;23.32;60.65;100781.84;10406492;28;20388;-71
2023/07/14 16:32:23;;;;;;;8.32;2.17;;;;;;;23.74;59.72;100771.38;10423007;28;20033;-72
2023/07/14 16:37:24;;;;;;;2.63;2.42;;;;;;;23.85;59.78;100768.22;10439278;28;20037;-70
2023/07/14 16:42:24;;;;;;;8.07;2.53;;;;;;;24.05;58.93;100761.69;10422723;28;20077;-70
2023/07/14 16:47:25;;;;;;;3.35;2.83;;;;;;;24.04;58.81;100753.69;10423913;28;20053;-70
2023/07/14 16:52:25;;;;;;;3.10;2.33;;;;;;;23.94;58.98;100739.97;10419804;28;20049;-70
2023/07/14 16:57:31;;;;;;;3.53;3.00;;;;;;;23.89;58.77;100740.81;10399279;28;20037;-71
2023/07/14 17:02:33;;;;;;;4.73;3.07;;;;;;;23.84;58.14;100743.66;10415871;28;20112;-71
2023/07/14 17:07:33;;;;;;;8.90;3.22;;;;;;;23.87;58.85;100740.31;10382552;28;20392;-71
2023/07/14 17:12:34;;;;;;;3.85;2.42;;;;;;;23.75;59.19;100729.63;10415311;28;20030;-71
2023/07/14 17:17:34;;;;;;;8.38;3.08;;;;;;;23.68;59.31;100723.56;10431993;28;20353;-72
2023/07/14 17:22:35;;;;;;;3.03;2.70;;;;;;;23.56;59.69;100710.09;10415149;28;20109;-70
2023/07/14 17:27:37;;;;;;;6.43;3.22;;;;;;;23.48;60.33;100690.56;10399775;28;20108;-71
2023/07/14 17:32:38;;;;;;;9.07;3.20;;;;;;;23.55;60.15;100680.84;10416332;28;20159;-71
2023/07/14 17:37:38;;;;;;;6.07;3.40;;;;;;;23.62;60.39;100678.53;10416713;28;20033;-71
2023/07/14 17:42:39;;;;;;;3.08;2.88;;;;;;;23.51;60.70;100678.91;10415537;28;20587;-71
2023/07/14 17:47:39;;;;;;;3.35;2.70;;;;;;;23.46;61.58;100671.50;10431175;28;20061;-71
2023/07/14 17:52:40;;;;;;;3.63;3.10;;;;;;;23.44;62.32;100662.66;10416405;28;20038;-71
2023/07/14 17:57:41;;;;;;;3.47;3.00;;;;;;;23.48;61.93;100657.38;10398193;28;20034;-71
2023/07/14 18:02:41;;;;;;;5.57;2.50;;;;;;;23.48;62.12;100658.22;10414340;28;20038;-70
2023/07/14 18:07:44;;;;;;;5.32;3.65;;;;;;;23.37;63.54;100656.66;10415284;28;20037;-71
2023/07/14 18:12:45;;;;;;;2.30;2.15;;;;;;;23.37;64.16;100635.38;10431826;28;20044;-71
2023/07/14 18:17:45;;;;;;;6.57;3.20;;;;;;;23.33;65.46;100641.78;10413663;28;20025;-71
2023/07/14 18:22:47;;;;;;;4.15;3.15;;;;;;;23.15;66.16;100610.16;10415125;28;20156;-70
2023/07/14 18:27:51;;;;;;;2.88;2.67;;;;;;;23.07;66.61;100607.97;10396212;28;20037;-71
2023/07/14 18:32:52;;;;;;;3.10;2.00;;;;;;;23.06;67.18;100600.81;10412969;28;20038;-71
2023/07/14 18:37:54;;;;;;;5.28;4.05;;;;;;;23.11;66.85;100603.56;10412270;28;20033;-71
2023/07/14 18:43:02;;;;;;;4.45;3.47;;;;;;;23.08;68.30;100595.84;10397551;28;20117;-71
2023/07/14 18:48:23;;;;;;;6.32;2.78;;;;;;;23.05;68.62;100585.38;10396790;28;20161;-70
2023/07/14 18:53:24;;;;;;;3.50;2.83;;;;;;;23.01;69.04;100581.56;10414181;28;20047;-69
2023/07/14 18:58:25;;;;;;;3.40;3.15;;;;;;;22.95;70.00;100570.53;10395766;28;20029;-71
2023/07/14 19:03:27;;;;;;;3.85;2.83;;;;;;;22.87;69.87;100564.75;10428025;28;20049;-66
2023/07/14 19:08:28;;;;;;;5.78;3.70;;;;;;;22.82;71.23;100553.78;10410915;28;20108;-67
2023/07/14 19:13:30;;;;;;;11.73;4.00;;;;;;;22.78;72.11;100563.72;10411885;28;20408;-69
2023/07/14 19:18:31;;;;;;;8.95;3.17;;;;;;;22.70;72.15;100548.59;10410177;28;20171;-66
2023/07/14 19:23:31;;;;;;;4.07;3.67;;;;;;;22.61;74.01;100533.75;10411465;28;20105;-66
2023/07/14 19:28:32;;;;;;;6.47;3.13;;;;;;;22.50;75.40;100533.84;10411021;28;20038;-67
2023/07/14 19:33:32;;;;;;;6.47;3.85;;;;;;;22.42;75.37;100523.41;10412766;28;20052;-75
2023/07/14 19:38:32;;;;;;;4.68;2.97;;;;;;;22.30;77.06;100525.66;10411557;28;20033;-69
2023/07/14 19:43:33;;;;;;;4.07;3.42;;;;;;;22.28;77.63;100525.97;10411862;28;20030;-72
2023/07/14 19:48:33;;;;;;;4.97;3.97;;;;;;;22.37;76.31;100545.50;10410568;28;20033;-73
2023/07/14 19:53:34;;;;;;;6.95;3.33;;;;;;;22.24;73.41;100555.25;10410115;28;20116;-74
2023/07/14 19:58:34;;;;;;;5.32;3.28;;;;;;;21.41;80.31;100544.75;10412157;28;20056;-74
2023/07/14 20:03:34;;;;;;;5.50;5.00;;;;;;;20.77;89.83;100515.03;10394428;28;20030;-77
2023/07/14 20:08:42;;;;;;;12.48;5.43;;;;;;;20.47;99.76;100510.31;10426650;28;20060;-70
2023/07/14 20:13:43;;;;;;;5.07;4.07;;;;;;;20.37;100.00;100487.19;10409894;28;20398;-70
2023/07/14 20:18:45;;;;;;;5.18;4.47;;;;;;;20.49;100.00;100478.69;10393221;28;20060;-70
2023/07/14 20:23:45;;;;;;;3.85;3.53;;;;;;;20.60;100.00;100479.53;10409195;28;20461;-70
2023/07/14 20:28:47;;;;;;;9.57;5.00;;;;;;;20.58;100.00;100474.31;10415857;28;20064;-71
2023/07/14 20:33:48;;;;;;;6.00;4.90;;;;;;;20.57;100.00;100458.06;10434801;28;20389;-70
2023/07/14 20:38:49;;;;;;;4.60;4.25;;;;;;;20.59;100.00;100458.63;10416725;28;20037;-70
2023/07/14 20:43:49;;;;;;;9.80;4.55;;;;;;;20.75;100.00;100456.69;10417047;28;20050;-70
2023/07/14 20:48:50;;;;;;;6.75;3.95;;;;;;;20.79;100.00;100449.53;10416672;28;20056;-71
2023/07/14 20:53:50;;;;;;;8.65;4.95;;;;;;;20.90;100.00;100434.69;10400340;28;20045;-70
2023/07/14 20:58:51;;;;;;;4.43;3.67;;;;;;;20.94;100.00;100438.50;10417301;28;20086;-70
2023/07/14 21:03:51;;;;;;;4.78;4.30;;;;;;;20.99;100.00;100418.41;10417457;28;20032;-70
2023/07/14 21:08:52;;;;;;;7.43;4.55;;;;;;;21.04;100.00;100408.22;10416874;28;20041;-70
2023/07/14 21:13:55;;;;;;;6.57;4.80;;;;;;;21.13;100.00;100403.78;10417027;28;20039;-71
2023/07/14 21:18:56;;;;;;;9.10;5.50;;;;;;;21.15;100.00;100392.47;10415253;28;20032;-70
2023/07/14 21:23:57;;;;;;;4.18;3.53;;;;;;;21.05;100.00;100376.81;10416367;28;20064;-71
2023/07/14 21:28:58;;;;;;;8.68;4.65;;;;;;;20.99;100.00;100374.34;10432589;28;20444;-71
2023/07/14 21:33:59;;;;;;;10.80;4.20;;;;;;;21.02;99.87;100371.03;10414738;28;20041;-70
2023/07/14 21:38:59;;;;;;;7.95;4.03;;;;;;;21.12;99.90;100355.34;10415579;28;20029;-70
2023/07/14 21:44:00;;;;;;;7.00;4.43;;;;;;;21.25;96.26;100358.56;10415547;28;20053;-70
2023/07/14 21:49:00;;;;;;;8.57;4.07;;;;;;;21.31;95.52;100352.78;10414914;28;20080;-71
2023/07/14 21:54:00;;;;;;;6.45;4.40;;;;;;;21.34;93.22;100343.09;10431012;28;20061;-71
2023/07/14 21:59:01;;;;;;;4.90;3.65;;;;;;;21.34;91.85;100337.59;10415682;28;20504;-71
2023/07/14 22:04:07;;;;;;;6.03;4.28;;;;;;;21.33;90.74;100333.22;10415409;28;20037;-71
2023/07/14 22:09:08;;;;;;;5.55;4.45;;;;;;;21.36;89.58;100327.16;10397909;28;20168;-70
2023/07/14 22:14:13;;;;;;;5.63;4.50;;;;;;;21.40;88.92;100310.88;10429247;28;20052;-69
2023/07/14 22:19:14;;;;;;;12.63;4.10;;;;;;;21.39;88.68;100304.56;10413947;28;20061;-69
2023/07/14 22:24:16;;;;;;;4.97;4.50;;;;;;;21.44;87.86;100312.81;10411953;28;20045;-70
2023/07/14 22:29:17;;;;;;;9.25;4.78;;;;;;;21.42;87.90;100300.41;10413069;28;20041;-70
2023/07/14 22:34:17;;;;;;;9.98;4.35;;;;;;;21.47;86.94;100292.09;10412999;28;20053;-70
2023/07/14 22:39:18;;;;;;;6.88;5.00;;;;;;;21.50;86.25;100291.53;10412303;28;20072;-70
2023/07/14 22:44:19;;;;;;;4.15;3.72;;;;;;;21.61;85.55;100300.59;10396595;28;20107;-70
2023/07/14 22:49:20;;;;;;;5.70;3.65;;;;;;;21.68;84.69;100301.06;10413276;28;20069;-70
2023/07/14 22:54:21;;;;;;;10.48;4.85;;;;;;;21.75;84.00;100309.84;10414008;28;20409;-70
2023/07/14 22:59:21;;;;;;;5.15;4.47;;;;;;;21.77;83.62;100289.16;10412688;28;20025;-70
2023/07/14 23:04:22;;;;;;;4.15;3.72;;;;;;;21.83;82.81;100281.69;10413404;28;20037;-70